sensor_id;sensor_type;location;lat;lon;timestamp;noise_LAeq;noise_LA_min;noise_LA_max;noise_LA01;noise_LA95
69616;Laerm;56822;52.516;4.708;2023-04-12T00:00:02;49.57;45.53;54.93;;
69616;Laerm;56822;52.516;4.708;2023-04-12T00:00:13;48.14;43.63;61.27;;
69616;Laerm;56822;52.516;4.708;2023-04-12T00:00:24;49.44;43.98;58.40;;
69616;Laerm;56822;52.516;4.708;2023-04-12T00:00:34;46.44;41.59;61.37;;
69616;Laerm;56822;52.516;4.708;2023-04-12T00:00:45;47.65;42.98;54.26;;
69616;Laerm;56822;52.516;4.708;2023-04-12T00:00:55;49.62;43.43;66.31;;
69616;Laerm;56822;52.516;4.708;2023-04-12T00:01:05;51.12;44.14;63.13;;
69616;Laerm;56822;52.516;4.708;2023-04-12T00:01:16;51.09;43.96;69.14;;
69616;Laerm;56822;52.516;4.708;2023-04-12T00:01:26;47.87;44.61;52.72;;
69616;Laerm;56822;52.516;4.708;2023-04-12T00:01:36;49.08;44.74;59.93;;
69616;Laerm;56822;52.516;4.708;2023-04-12T00:01:47;49.15;46.08;52.91;;
69616;Laerm;56822;52.516;4.708;2023-04-12T00:01:57;51.55;46.20;65.42;;
69616;Laerm;56822;52.516;4.708;2023-04-12T00:02:07;51.27;45.79;69.41;;
69616;Laerm;56822;52.516;4.708;2023-04-12T00:02:18;53.78;47.43;64.85;;
69616;Laerm;56822;52.516;4.708;2023-04-12T00:02:28;53.04;47.02;66.57;;
69616;Laerm;56822;52.516;4.708;2023-04-12T00:02:38;51.41;46.12;65.77;;
69616;Laerm;56822;52.516;4.708;2023-04-12T00:02:49;57.59;44.62;69.32;;
69616;Laerm;56822;52.516;4.708;2023-04-12T00:03:04;59.44;44.30;74.64;;
69616;Laerm;56822;52.516;4.708;2023-04-12T00:03:15;58.75;45.56;76.68;;
69616;Laerm;56822;52.516;4.708;2023-04-12T00:03:29;53.64;45.97;65.52;;
69616;Laerm;56822;52.516;4.708;2023-04-12T00:03:43;51.95;44.50;70.27;;
69616;Laerm;56822;52.516;4.708;2023-04-12T00:03:59;50.22;44.00;58.63;;
69616;Laerm;56822;52.516;4.708;2023-04-12T00:04:12;51.95;45.20;72.67;;
69616;Laerm;56822;52.516;4.708;2023-04-12T00:04:25;53.52;48.38;64.36;;
69616;Laerm;56822;52.516;4.708;2023-04-12T00:04:37;51.42;47.16;65.96;;
69616;Laerm;56822;52.516;4.708;2023-04-12T00:04:48;51.39;45.66;65.53;;
69616;Laerm;56822;52.516;4.708;2023-04-12T00:05:04;51.65;45.31;71.34;;
69616;Laerm;56822;52.516;4.708;2023-04-12T00:05:14;53.36;45.30;66.39;;
69616;Laerm;56822;52.516;4.708;2023-04-12T00:05:25;51.61;47.69;60.14;;
69616;Laerm;56822;52.516;4.708;2023-04-12T00:05:36;51.64;45.00;62.29;;
69616;Laerm;56822;52.516;4.708;2023-04-12T00:05:47;53.86;44.02;66.93;;
69616;Laerm;56822;52.516;4.708;2023-04-12T00:05:57;56.92;44.11;70.04;;
69616;Laerm;56822;52.516;4.708;2023-04-12T00:06:08;53.76;44.68;67.14;;
69616;Laerm;56822;52.516;4.708;2023-04-12T00:06:19;52.53;45.60;63.58;;
69616;Laerm;56822;52.516;4.708;2023-04-12T00:06:41;51.70;42.25;65.40;;
69616;Laerm;56822;52.516;4.708;2023-04-12T00:06:52;60.20;44.56;73.34;;
69616;Laerm;56822;52.516;4.708;2023-04-12T00:07:03;51.47;44.26;62.91;;
69616;Laerm;56822;52.516;4.708;2023-04-12T00:07:15;49.03;43.11;60.73;;
69616;Laerm;56822;52.516;4.708;2023-04-12T00:07:27;55.70;42.84;69.79;;
69616;Laerm;56822;52.516;4.708;2023-04-12T00:07:39;51.46;43.78;64.33;;
69616;Laerm;56822;52.516;4.708;2023-04-12T00:07:49;53.99;42.36;70.71;;
69616;Laerm;56822;52.516;4.708;2023-04-12T00:08:02;48.77;42.85;60.60;;
69616;Laerm;56822;52.516;4.708;2023-04-12T00:08:14;54.09;41.96;66.42;;
69616;Laerm;56822;52.516;4.708;2023-04-12T00:08:25;48.69;40.29;62.82;;
69616;Laerm;56822;52.516;4.708;2023-04-12T00:08:42;45.11;38.89;58.69;;
69616;Laerm;56822;52.516;4.708;2023-04-12T00:08:55;47.85;42.63;62.45;;
69616;Laerm;56822;52.516;4.708;2023-04-12T00:09:06;48.79;42.36;62.79;;
69616;Laerm;56822;52.516;4.708;2023-04-12T00:09:17;53.60;46.54;67.69;;
69616;Laerm;56822;52.516;4.708;2023-04-12T00:09:28;50.56;43.85;58.73;;
69616;Laerm;56822;52.516;4.708;2023-04-12T00:09:39;56.54;45.96;69.45;;
69616;Laerm;56822;52.516;4.708;2023-04-12T00:09:49;57.32;45.33;73.99;;
69616;Laerm;56822;52.516;4.708;2023-04-12T00:10:00;51.56;43.54;58.90;;
69616;Laerm;56822;52.516;4.708;2023-04-12T00:10:10;48.51;41.86;65.60;;
69616;Laerm;56822;52.516;4.708;2023-04-12T00:10:21;48.39;40.85;66.19;;
69616;Laerm;56822;52.516;4.708;2023-04-12T00:10:31;49.67;43.16;60.08;;
69616;Laerm;56822;52.516;4.708;2023-04-12T00:10:42;53.55;45.63;62.19;;
69616;Laerm;56822;52.516;4.708;2023-04-12T00:10:52;50.31;45.94;65.77;;
69616;Laerm;56822;52.516;4.708;2023-04-12T00:11:02;54.10;43.21;64.86;;
69616;Laerm;56822;52.516;4.708;2023-04-12T00:11:13;49.35;42.36;60.15;;
69616;Laerm;56822;52.516;4.708;2023-04-12T00:11:23;51.29;43.57;68.09;;
69616;Laerm;56822;52.516;4.708;2023-04-12T00:11:33;52.54;44.53;65.50;;
69616;Laerm;56822;52.516;4.708;2023-04-12T00:11:44;54.17;46.55;64.20;;
69616;Laerm;56822;52.516;4.708;2023-04-12T00:11:55;49.71;44.40;64.96;;
69616;Laerm;56822;52.516;4.708;2023-04-12T00:12:07;54.09;43.37;69.70;;
69616;Laerm;56822;52.516;4.708;2023-04-12T00:12:17;59.91;46.60;70.17;;
69616;Laerm;56822;52.516;4.708;2023-04-12T00:12:28;50.62;44.95;58.61;;
69616;Laerm;56822;52.516;4.708;2023-04-12T00:12:38;50.63;44.97;59.30;;
69616;Laerm;56822;52.516;4.708;2023-04-12T00:12:50;49.29;44.75;59.35;;
69616;Laerm;56822;52.516;4.708;2023-04-12T00:13:00;53.77;45.58;71.64;;
69616;Laerm;56822;52.516;4.708;2023-04-12T00:13:10;51.44;46.46;58.95;;
69616;Laerm;56822;52.516;4.708;2023-04-12T00:13:20;48.25;45.36;52.32;;
69616;Laerm;56822;52.516;4.708;2023-04-12T00:13:31;52.04;46.72;64.62;;
69616;Laerm;56822;52.516;4.708;2023-04-12T00:13:41;52.03;45.78;61.58;;
69616;Laerm;56822;52.516;4.708;2023-04-12T00:13:51;54.07;48.92;65.12;;
69616;Laerm;56822;52.516;4.708;2023-04-12T00:14:02;48.67;44.76;60.80;;
69616;Laerm;56822;52.516;4.708;2023-04-12T00:14:12;47.59;42.64;55.77;;
69616;Laerm;56822;52.516;4.708;2023-04-12T00:14:23;47.91;41.05;67.23;;
69616;Laerm;56822;52.516;4.708;2023-04-12T00:14:33;45.00;40.23;54.70;;
69616;Laerm;56822;52.516;4.708;2023-04-12T00:14:44;48.12;45.01;53.47;;
69616;Laerm;56822;52.516;4.708;2023-04-12T00:14:54;53.49;45.12;65.78;;
69616;Laerm;56822;52.516;4.708;2023-04-12T00:15:04;55.06;44.42;70.77;;
69616;Laerm;56822;52.516;4.708;2023-04-12T00:15:15;48.59;43.15;64.47;;
69616;Laerm;56822;52.516;4.708;2023-04-12T00:15:26;50.69;43.91;58.19;;
69616;Laerm;56822;52.516;4.708;2023-04-12T00:15:36;53.49;47.16;62.05;;
69616;Laerm;56822;52.516;4.708;2023-04-12T00:15:47;48.07;41.47;57.82;;
69616;Laerm;56822;52.516;4.708;2023-04-12T00:15:58;47.78;41.14;62.87;;
69616;Laerm;56822;52.516;4.708;2023-04-12T00:16:08;45.98;39.03;57.41;;
69616;Laerm;56822;52.516;4.708;2023-04-12T00:16:19;45.23;40.60;57.07;;
69616;Laerm;56822;52.516;4.708;2023-04-12T00:16:29;48.48;40.86;59.82;;
69616;Laerm;56822;52.516;4.708;2023-04-12T00:16:39;51.46;44.13;62.25;;
69616;Laerm;56822;52.516;4.708;2023-04-12T00:16:50;55.04;46.29;72.38;;
69616;Laerm;56822;52.516;4.708;2023-04-12T00:17:01;52.53;45.21;60.87;;
69616;Laerm;56822;52.516;4.708;2023-04-12T00:17:11;54.35;48.34;63.47;;
69616;Laerm;56822;52.516;4.708;2023-04-12T00:17:22;53.59;46.40;65.13;;
69616;Laerm;56822;52.516;4.708;2023-04-12T00:17:32;50.60;47.16;57.64;;
69616;Laerm;56822;52.516;4.708;2023-04-12T00:17:43;48.00;43.78;58.44;;
69616;Laerm;56822;52.516;4.708;2023-04-12T00:17:53;51.00;44.19;61.25;;
69616;Laerm;56822;52.516;4.708;2023-04-12T00:18:03;47.81;44.30;53.57;;
69616;Laerm;56822;52.516;4.708;2023-04-12T00:18:14;49.97;43.70;60.07;;
69616;Laerm;56822;52.516;4.708;2023-04-12T00:18:24;60.41;44.02;73.70;;
69616;Laerm;56822;52.516;4.708;2023-04-12T00:18:34;55.69;44.81;67.77;;
69616;Laerm;56822;52.516;4.708;2023-04-12T00:18:45;50.21;43.56;62.08;;
69616;Laerm;56822;52.516;4.708;2023-04-12T00:18:55;61.82;45.21;75.85;;
69616;Laerm;56822;52.516;4.708;2023-04-12T00:19:06;54.80;47.28;64.27;;
69616;Laerm;56822;52.516;4.708;2023-04-12T00:19:16;58.01;50.91;66.25;;
69616;Laerm;56822;52.516;4.708;2023-04-12T00:19:27;57.11;51.73;71.79;;
69616;Laerm;56822;52.516;4.708;2023-04-12T00:19:40;54.20;48.12;62.07;;
69616;Laerm;56822;52.516;4.708;2023-04-12T00:19:50;53.50;48.83;63.02;;
69616;Laerm;56822;52.516;4.708;2023-04-12T00:20:01;53.68;49.29;58.08;;
69616;Laerm;56822;52.516;4.708;2023-04-12T00:20:14;54.42;48.95;59.50;;
69616;Laerm;56822;52.516;4.708;2023-04-12T00:20:25;51.65;47.11;61.39;;
69616;Laerm;56822;52.516;4.708;2023-04-12T00:20:36;48.46;45.21;52.21;;
69616;Laerm;56822;52.516;4.708;2023-04-12T00:20:47;48.96;40.96;62.58;;
69616;Laerm;56822;52.516;4.708;2023-04-12T00:20:57;61.04;44.95;78.10;;
69616;Laerm;56822;52.516;4.708;2023-04-12T00:21:08;66.58;44.66;85.20;;
69616;Laerm;56822;52.516;4.708;2023-04-12T00:21:19;61.46;49.16;77.57;;
69616;Laerm;56822;52.516;4.708;2023-04-12T00:21:29;52.38;45.86;59.87;;
69616;Laerm;56822;52.516;4.708;2023-04-12T00:21:40;56.88;45.58;69.67;;
69616;Laerm;56822;52.516;4.708;2023-04-12T00:21:50;49.21;43.52;57.09;;
69616;Laerm;56822;52.516;4.708;2023-04-12T00:22:00;49.61;44.50;61.06;;
69616;Laerm;56822;52.516;4.708;2023-04-12T00:22:11;48.71;43.54;64.85;;
69616;Laerm;56822;52.516;4.708;2023-04-12T00:22:21;49.61;42.88;61.27;;
69616;Laerm;56822;52.516;4.708;2023-04-12T00:22:31;51.49;41.29;62.91;;
69616;Laerm;56822;52.516;4.708;2023-04-12T00:22:42;51.45;40.17;71.25;;
69616;Laerm;56822;52.516;4.708;2023-04-12T00:22:53;46.46;40.23;60.00;;
69616;Laerm;56822;52.516;4.708;2023-04-12T00:23:03;46.92;40.56;61.00;;
69616;Laerm;56822;52.516;4.708;2023-04-12T00:23:14;50.29;42.60;58.92;;
69616;Laerm;56822;52.516;4.708;2023-04-12T00:23:26;55.36;48.61;62.29;;
69616;Laerm;56822;52.516;4.708;2023-04-12T00:23:36;61.54;47.31;76.43;;
69616;Laerm;56822;52.516;4.708;2023-04-12T00:23:49;59.84;48.16;70.89;;
69616;Laerm;56822;52.516;4.708;2023-04-12T00:24:00;57.48;45.57;73.59;;
69616;Laerm;56822;52.516;4.708;2023-04-12T00:24:11;49.56;44.17;59.77;;
69616;Laerm;56822;52.516;4.708;2023-04-12T00:24:21;55.46;48.23;65.93;;
69616;Laerm;56822;52.516;4.708;2023-04-12T00:24:31;57.53;44.69;74.81;;
69616;Laerm;56822;52.516;4.708;2023-04-12T00:24:42;59.00;46.44;68.97;;
69616;Laerm;56822;52.516;4.708;2023-04-12T00:24:52;53.24;45.47;66.01;;
69616;Laerm;56822;52.516;4.708;2023-04-12T00:25:03;50.87;43.02;65.05;;
69616;Laerm;56822;52.516;4.708;2023-04-12T00:25:13;62.57;49.85;73.28;;
69616;Laerm;56822;52.516;4.708;2023-04-12T00:25:23;63.02;49.25;76.44;;
69616;Laerm;56822;52.516;4.708;2023-04-12T00:25:34;61.52;47.34;74.19;;
69616;Laerm;56822;52.516;4.708;2023-04-12T00:25:45;59.79;50.86;74.54;;
69616;Laerm;56822;52.516;4.708;2023-04-12T00:25:55;62.09;50.29;70.92;;
69616;Laerm;56822;52.516;4.708;2023-04-12T00:26:06;57.33;46.35;73.51;;
69616;Laerm;56822;52.516;4.708;2023-04-12T00:26:16;53.18;44.69;64.65;;
69616;Laerm;56822;52.516;4.708;2023-04-12T00:26:26;52.16;42.39;63.56;;
69616;Laerm;56822;52.516;4.708;2023-04-12T00:26:37;51.21;42.13;65.13;;
69616;Laerm;56822;52.516;4.708;2023-04-12T00:26:47;54.67;41.80;70.66;;
69616;Laerm;56822;52.516;4.708;2023-04-12T00:26:57;49.99;43.16;60.40;;
69616;Laerm;56822;52.516;4.708;2023-04-12T00:27:11;55.04;43.65;69.07;;
69616;Laerm;56822;52.516;4.708;2023-04-12T00:27:21;55.28;43.97;66.15;;
69616;Laerm;56822;52.516;4.708;2023-04-12T00:27:31;57.06;48.31;73.35;;
69616;Laerm;56822;52.516;4.708;2023-04-12T00:27:42;60.52;47.28;73.97;;
69616;Laerm;56822;52.516;4.708;2023-04-12T00:27:52;66.00;49.66;77.76;;
69616;Laerm;56822;52.516;4.708;2023-04-12T00:28:02;56.64;48.63;65.84;;
69616;Laerm;56822;52.516;4.708;2023-04-12T00:28:13;57.91;49.95;66.55;;
69616;Laerm;56822;52.516;4.708;2023-04-12T00:28:24;62.63;47.61;74.50;;
69616;Laerm;56822;52.516;4.708;2023-04-12T00:28:35;67.33;47.86;80.72;;
69616;Laerm;56822;52.516;4.708;2023-04-12T00:28:45;56.64;44.59;70.05;;
69616;Laerm;56822;52.516;4.708;2023-04-12T00:28:55;61.45;45.76;73.83;;
69616;Laerm;56822;52.516;4.708;2023-04-12T00:29:06;57.97;48.62;73.01;;
69616;Laerm;56822;52.516;4.708;2023-04-12T00:29:16;53.21;46.39;67.46;;
69616;Laerm;56822;52.516;4.708;2023-04-12T00:29:27;56.60;47.76;66.00;;
69616;Laerm;56822;52.516;4.708;2023-04-12T00:29:37;56.21;46.31;68.43;;
69616;Laerm;56822;52.516;4.708;2023-04-12T00:29:47;53.79;40.97;69.64;;
69616;Laerm;56822;52.516;4.708;2023-04-12T00:29:58;45.96;40.28;58.65;;
69616;Laerm;56822;52.516;4.708;2023-04-12T00:30:08;50.36;40.85;64.23;;
69616;Laerm;56822;52.516;4.708;2023-04-12T00:30:19;57.11;43.12;71.11;;
69616;Laerm;56822;52.516;4.708;2023-04-12T00:30:30;51.75;43.82;67.54;;
69616;Laerm;56822;52.516;4.708;2023-04-12T00:30:40;55.71;46.19;66.85;;
69616;Laerm;56822;52.516;4.708;2023-04-12T00:30:50;56.05;44.80;68.11;;
69616;Laerm;56822;52.516;4.708;2023-04-12T00:31:01;55.70;44.75;71.78;;
69616;Laerm;56822;52.516;4.708;2023-04-12T00:31:11;54.65;47.14;63.28;;
69616;Laerm;56822;52.516;4.708;2023-04-12T00:31:21;51.84;47.27;62.56;;
69616;Laerm;56822;52.516;4.708;2023-04-12T00:31:32;57.00;47.22;70.98;;
69616;Laerm;56822;52.516;4.708;2023-04-12T00:31:43;55.54;49.34;67.76;;
69616;Laerm;56822;52.516;4.708;2023-04-12T00:31:53;57.31;48.76;65.69;;
69616;Laerm;56822;52.516;4.708;2023-04-12T00:32:03;53.94;47.54;63.39;;
69616;Laerm;56822;52.516;4.708;2023-04-12T00:32:14;56.23;48.99;68.10;;
69616;Laerm;56822;52.516;4.708;2023-04-12T00:32:25;59.89;51.28;73.52;;
69616;Laerm;56822;52.516;4.708;2023-04-12T00:32:36;57.22;45.33;71.32;;
69616;Laerm;56822;52.516;4.708;2023-04-12T00:32:46;52.79;44.19;63.66;;
69616;Laerm;56822;52.516;4.708;2023-04-12T00:32:57;63.02;46.94;78.49;;
69616;Laerm;56822;52.516;4.708;2023-04-12T00:33:07;54.10;42.39;68.34;;
69616;Laerm;56822;52.516;4.708;2023-04-12T00:33:17;54.45;42.94;67.08;;
69616;Laerm;56822;52.516;4.708;2023-04-12T00:33:28;53.86;42.87;65.28;;
69616;Laerm;56822;52.516;4.708;2023-04-12T00:33:38;68.74;48.67;84.30;;
69616;Laerm;56822;52.516;4.708;2023-04-12T00:33:48;63.05;46.84;73.01;;
69616;Laerm;56822;52.516;4.708;2023-04-12T00:33:58;56.99;44.71;67.50;;
69616;Laerm;56822;52.516;4.708;2023-04-12T00:34:09;50.38;44.42;63.73;;
69616;Laerm;56822;52.516;4.708;2023-04-12T00:34:19;50.74;46.10;56.21;;
69616;Laerm;56822;52.516;4.708;2023-04-12T00:34:29;55.40;48.34;69.83;;
69616;Laerm;56822;52.516;4.708;2023-04-12T00:34:40;53.35;47.08;64.01;;
69616;Laerm;56822;52.516;4.708;2023-04-12T00:34:50;60.45;51.06;77.47;;
69616;Laerm;56822;52.516;4.708;2023-04-12T00:35:00;58.46;51.07;72.11;;
69616;Laerm;56822;52.516;4.708;2023-04-12T00:35:10;57.95;47.74;71.18;;
69616;Laerm;56822;52.516;4.708;2023-04-12T00:35:21;53.21;48.08;63.98;;
69616;Laerm;56822;52.516;4.708;2023-04-12T00:35:31;58.29;50.00;68.04;;
69616;Laerm;56822;52.516;4.708;2023-04-12T00:35:41;54.06;44.95;66.32;;
69616;Laerm;56822;52.516;4.708;2023-04-12T00:35:52;48.11;41.99;63.13;;
69616;Laerm;56822;52.516;4.708;2023-04-12T00:36:02;53.80;43.69;63.91;;
69616;Laerm;56822;52.516;4.708;2023-04-12T00:36:12;48.51;39.95;61.39;;
69616;Laerm;56822;52.516;4.708;2023-04-12T00:36:23;49.17;39.90;66.64;;
69616;Laerm;56822;52.516;4.708;2023-04-12T00:36:33;46.97;40.06;61.09;;
69616;Laerm;56822;52.516;4.708;2023-04-12T00:36:43;48.26;41.95;59.76;;
69616;Laerm;56822;52.516;4.708;2023-04-12T00:36:53;51.72;44.94;60.38;;
69616;Laerm;56822;52.516;4.708;2023-04-12T00:37:04;54.06;45.38;66.27;;
69616;Laerm;56822;52.516;4.708;2023-04-12T00:37:14;56.28;43.24;70.16;;
69616;Laerm;56822;52.516;4.708;2023-04-12T00:37:25;53.68;44.67;66.49;;
69616;Laerm;56822;52.516;4.708;2023-04-12T00:37:35;52.19;46.85;64.61;;
69616;Laerm;56822;52.516;4.708;2023-04-12T00:37:45;52.37;46.67;58.96;;
69616;Laerm;56822;52.516;4.708;2023-04-12T00:37:56;53.91;47.61;60.97;;
69616;Laerm;56822;52.516;4.708;2023-04-12T00:38:06;53.33;45.99;68.22;;
69616;Laerm;56822;52.516;4.708;2023-04-12T00:38:19;52.67;41.15;69.35;;
69616;Laerm;56822;52.516;4.708;2023-04-12T00:38:29;51.95;41.76;63.60;;
69616;Laerm;56822;52.516;4.708;2023-04-12T00:38:40;58.55;43.63;71.50;;
69616;Laerm;56822;52.516;4.708;2023-04-12T00:38:51;57.74;46.55;68.69;;
69616;Laerm;56822;52.516;4.708;2023-04-12T00:39:01;52.31;45.42;64.18;;
69616;Laerm;56822;52.516;4.708;2023-04-12T00:39:12;56.17;46.16;69.16;;
69616;Laerm;56822;52.516;4.708;2023-04-12T00:39:22;54.34;48.48;58.82;;
69616;Laerm;56822;52.516;4.708;2023-04-12T00:39:32;52.82;47.74;66.68;;
69616;Laerm;56822;52.516;4.708;2023-04-12T00:39:43;52.16;47.98;57.25;;
69616;Laerm;56822;52.516;4.708;2023-04-12T00:39:53;57.35;47.88;71.53;;
69616;Laerm;56822;52.516;4.708;2023-04-12T00:40:03;64.24;48.03;78.01;;
69616;Laerm;56822;52.516;4.708;2023-04-12T00:40:16;54.02;44.64;70.65;;
69616;Laerm;56822;52.516;4.708;2023-04-12T00:40:26;59.26;46.29;75.77;;
69616;Laerm;56822;52.516;4.708;2023-04-12T00:40:39;52.43;46.42;60.02;;
69616;Laerm;56822;52.516;4.708;2023-04-12T00:40:50;53.73;49.01;61.42;;
69616;Laerm;56822;52.516;4.708;2023-04-12T00:41:00;53.45;49.26;62.51;;
69616;Laerm;56822;52.516;4.708;2023-04-12T00:41:10;55.94;50.45;68.21;;
69616;Laerm;56822;52.516;4.708;2023-04-12T00:41:21;60.23;49.64;75.92;;
69616;Laerm;56822;52.516;4.708;2023-04-12T00:41:35;60.51;51.96;71.25;;
69616;Laerm;56822;52.516;4.708;2023-04-12T00:41:45;58.38;48.65;70.14;;
69616;Laerm;56822;52.516;4.708;2023-04-12T00:41:55;52.25;46.32;62.98;;
69616;Laerm;56822;52.516;4.708;2023-04-12T00:42:09;56.40;48.41;66.96;;
69616;Laerm;56822;52.516;4.708;2023-04-12T00:42:20;54.48;48.22;65.58;;
69616;Laerm;56822;52.516;4.708;2023-04-12T00:42:30;54.56;48.31;63.39;;
69616;Laerm;56822;52.516;4.708;2023-04-12T00:42:41;56.17;49.43;71.98;;
69616;Laerm;56822;52.516;4.708;2023-04-12T00:42:51;51.89;47.55;60.77;;
69616;Laerm;56822;52.516;4.708;2023-04-12T00:43:01;51.86;46.96;62.29;;
69616;Laerm;56822;52.516;4.708;2023-04-12T00:43:12;50.39;45.16;65.35;;
69616;Laerm;56822;52.516;4.708;2023-04-12T00:43:27;53.29;42.13;64.18;;
69616;Laerm;56822;52.516;4.708;2023-04-12T00:43:39;53.08;45.11;59.01;;
69616;Laerm;56822;52.516;4.708;2023-04-12T00:43:50;52.50;47.43;58.84;;
69616;Laerm;56822;52.516;4.708;2023-04-12T00:44:00;53.01;46.69;64.74;;
69616;Laerm;56822;52.516;4.708;2023-04-12T00:44:10;47.19;43.54;54.85;;
69616;Laerm;56822;52.516;4.708;2023-04-12T00:44:21;57.05;45.82;68.30;;
69616;Laerm;56822;52.516;4.708;2023-04-12T00:44:32;55.00;45.97;69.07;;
69616;Laerm;56822;52.516;4.708;2023-04-12T00:44:42;54.26;46.63;63.97;;
69616;Laerm;56822;52.516;4.708;2023-04-12T00:44:53;48.26;41.66;61.27;;
69616;Laerm;56822;52.516;4.708;2023-04-12T00:45:04;46.43;41.38;52.03;;
69616;Laerm;56822;52.516;4.708;2023-04-12T00:45:15;49.87;45.22;57.69;;
69616;Laerm;56822;52.516;4.708;2023-04-12T00:45:26;53.20;47.71;57.01;;
69616;Laerm;56822;52.516;4.708;2023-04-12T00:45:36;52.82;48.75;60.35;;
69616;Laerm;56822;52.516;4.708;2023-04-12T00:45:46;56.37;48.54;71.41;;
69616;Laerm;56822;52.516;4.708;2023-04-12T00:45:57;54.95;47.32;64.79;;
69616;Laerm;56822;52.516;4.708;2023-04-12T00:46:07;60.31;45.12;76.23;;
69616;Laerm;56822;52.516;4.708;2023-04-12T00:46:18;52.97;43.19;67.42;;
69616;Laerm;56822;52.516;4.708;2023-04-12T00:46:29;52.21;46.50;63.79;;
69616;Laerm;56822;52.516;4.708;2023-04-12T00:46:40;52.67;45.78;61.53;;
69616;Laerm;56822;52.516;4.708;2023-04-12T00:46:51;54.67;45.12;75.52;;
69616;Laerm;56822;52.516;4.708;2023-04-12T00:47:04;52.79;43.04;63.04;;
69616;Laerm;56822;52.516;4.708;2023-04-12T00:47:15;48.97;43.37;60.76;;
69616;Laerm;56822;52.516;4.708;2023-04-12T00:47:25;56.53;46.76;70.39;;
69616;Laerm;56822;52.516;4.708;2023-04-12T00:47:38;52.18;45.16;62.88;;
69616;Laerm;56822;52.516;4.708;2023-04-12T00:47:49;55.24;47.53;62.30;;
69616;Laerm;56822;52.516;4.708;2023-04-12T00:47:59;53.27;48.46;64.22;;
69616;Laerm;56822;52.516;4.708;2023-04-12T00:48:10;51.58;45.11;60.85;;
69616;Laerm;56822;52.516;4.708;2023-04-12T00:48:22;50.63;45.28;61.66;;
69616;Laerm;56822;52.516;4.708;2023-04-12T00:48:32;55.03;44.81;70.41;;
69616;Laerm;56822;52.516;4.708;2023-04-12T00:48:43;56.02;41.03;67.68;;
69616;Laerm;56822;52.516;4.708;2023-04-12T00:48:56;47.89;39.03;59.49;;
69616;Laerm;56822;52.516;4.708;2023-04-12T00:49:07;49.50;41.83;60.57;;
69616;Laerm;56822;52.516;4.708;2023-04-12T00:49:17;48.19;42.40;54.35;;
69616;Laerm;56822;52.516;4.708;2023-04-12T00:49:28;53.09;46.69;65.42;;
69616;Laerm;56822;52.516;4.708;2023-04-12T00:49:39;58.01;47.63;70.88;;
69616;Laerm;56822;52.516;4.708;2023-04-12T00:49:50;57.92;47.66;71.04;;
69616;Laerm;56822;52.516;4.708;2023-04-12T00:50:01;54.05;46.70;67.27;;
69616;Laerm;56822;52.516;4.708;2023-04-12T00:50:12;50.66;45.07;62.31;;
69616;Laerm;56822;52.516;4.708;2023-04-12T00:50:23;54.64;42.60;67.29;;
69616;Laerm;56822;52.516;4.708;2023-04-12T00:50:33;53.19;43.76;64.42;;
69616;Laerm;56822;52.516;4.708;2023-04-12T00:50:44;52.14;43.18;65.81;;
69616;Laerm;56822;52.516;4.708;2023-04-12T00:50:55;53.55;48.34;62.81;;
69616;Laerm;56822;52.516;4.708;2023-04-12T00:51:06;58.25;51.05;67.49;;
69616;Laerm;56822;52.516;4.708;2023-04-12T00:51:17;60.57;48.72;72.37;;
69616;Laerm;56822;52.516;4.708;2023-04-12T00:51:31;49.33;41.90;61.21;;
69616;Laerm;56822;52.516;4.708;2023-04-12T00:51:42;48.84;40.92;58.81;;
69616;Laerm;56822;52.516;4.708;2023-04-12T00:51:53;50.59;42.10;61.00;;
69616;Laerm;56822;52.516;4.708;2023-04-12T00:52:06;49.71;41.67;61.28;;
69616;Laerm;56822;52.516;4.708;2023-04-12T00:52:16;54.77;46.57;63.02;;
69616;Laerm;56822;52.516;4.708;2023-04-12T00:52:27;57.33;46.53;68.22;;
69616;Laerm;56822;52.516;4.708;2023-04-12T00:52:43;55.26;47.51;68.47;;
69616;Laerm;56822;52.516;4.708;2023-04-12T00:52:54;51.29;45.15;64.84;;
69616;Laerm;56822;52.516;4.708;2023-04-12T00:53:04;48.02;41.70;57.84;;
69616;Laerm;56822;52.516;4.708;2023-04-12T00:53:14;51.47;43.34;63.86;;
69616;Laerm;56822;52.516;4.708;2023-04-12T00:53:26;55.61;47.95;68.86;;
69616;Laerm;56822;52.516;4.708;2023-04-12T00:53:37;52.22;46.18;64.81;;
69616;Laerm;56822;52.516;4.708;2023-04-12T00:53:48;51.04;45.65;60.87;;
69616;Laerm;56822;52.516;4.708;2023-04-12T00:53:59;52.31;48.44;57.12;;
69616;Laerm;56822;52.516;4.708;2023-04-12T00:54:11;49.37;44.11;59.93;;
69616;Laerm;56822;52.516;4.708;2023-04-12T00:54:22;60.60;44.70;77.39;;
69616;Laerm;56822;52.516;4.708;2023-04-12T00:54:35;62.64;46.85;78.54;;
69616;Laerm;56822;52.516;4.708;2023-04-12T00:54:45;50.08;44.21;61.00;;
69616;Laerm;56822;52.516;4.708;2023-04-12T00:54:55;51.66;43.25;63.11;;
69616;Laerm;56822;52.516;4.708;2023-04-12T00:55:06;52.60;43.02;66.73;;
69616;Laerm;56822;52.516;4.708;2023-04-12T00:55:18;54.33;48.49;60.35;;
69616;Laerm;56822;52.516;4.708;2023-04-12T00:55:29;55.40;47.84;69.19;;
69616;Laerm;56822;52.516;4.708;2023-04-12T00:55:43;52.10;46.47;62.52;;
69616;Laerm;56822;52.516;4.708;2023-04-12T00:55:53;51.69;46.29;62.62;;
69616;Laerm;56822;52.516;4.708;2023-04-12T00:56:04;47.54;43.25;55.39;;
69616;Laerm;56822;52.516;4.708;2023-04-12T00:56:14;47.50;41.59;58.23;;
69616;Laerm;56822;52.516;4.708;2023-04-12T00:56:25;49.84;40.61;60.97;;
69616;Laerm;56822;52.516;4.708;2023-04-12T00:56:37;53.46;44.69;65.02;;
69616;Laerm;56822;52.516;4.708;2023-04-12T00:56:49;57.36;43.43;74.62;;
69616;Laerm;56822;52.516;4.708;2023-04-12T00:57:00;54.44;44.71;68.75;;
69616;Laerm;56822;52.516;4.708;2023-04-12T00:57:10;56.93;45.89;67.50;;
69616;Laerm;56822;52.516;4.708;2023-04-12T00:57:21;54.64;47.66;68.60;;
69616;Laerm;56822;52.516;4.708;2023-04-12T00:57:35;51.18;45.36;60.76;;
69616;Laerm;56822;52.516;4.708;2023-04-12T00:57:46;52.57;42.30;67.82;;
69616;Laerm;56822;52.516;4.708;2023-04-12T00:57:56;46.22;40.25;56.34;;
69616;Laerm;56822;52.516;4.708;2023-04-12T00:58:06;56.37;45.77;67.43;;
69616;Laerm;56822;52.516;4.708;2023-04-12T00:58:17;55.40;43.42;66.33;;
69616;Laerm;56822;52.516;4.708;2023-04-12T00:58:27;58.53;44.82;73.90;;
69616;Laerm;56822;52.516;4.708;2023-04-12T00:58:37;53.98;44.71;63.81;;
69616;Laerm;56822;52.516;4.708;2023-04-12T00:58:48;58.94;49.31;73.66;;
69616;Laerm;56822;52.516;4.708;2023-04-12T00:58:58;63.08;49.31;75.18;;
69616;Laerm;56822;52.516;4.708;2023-04-12T00:59:09;57.93;48.24;70.85;;
69616;Laerm;56822;52.516;4.708;2023-04-12T00:59:19;52.74;43.21;68.87;;
69616;Laerm;56822;52.516;4.708;2023-04-12T00:59:29;45.35;40.31;60.82;;
69616;Laerm;56822;52.516;4.708;2023-04-12T00:59:40;44.81;39.89;52.99;;
69616;Laerm;56822;52.516;4.708;2023-04-12T00:59:50;48.95;42.09;59.95;;
69616;Laerm;56822;52.516;4.708;2023-04-12T01:00:01;53.99;43.20;66.26;;
69616;Laerm;56822;52.516;4.708;2023-04-12T01:00:13;54.42;46.19;65.31;;
69616;Laerm;56822;52.516;4.708;2023-04-12T01:00:25;57.11;47.20;71.97;;
69616;Laerm;56822;52.516;4.708;2023-04-12T01:00:36;58.99;47.42;70.50;;
69616;Laerm;56822;52.516;4.708;2023-04-12T01:00:47;53.34;43.65;67.94;;
69616;Laerm;56822;52.516;4.708;2023-04-12T01:01:01;54.95;45.73;64.77;;